Historyczne dane pomiarowe

Dodano dane terminowe – wersja testowa.

Dane z okresu 1951-2019

Wersja bazy: 1.34 [2019-03-16, lista zmian], aktualizacja planowana na 2019-04-15

Dane meteo z obszaru Polski uzyskane na podstawie danych udostępnionych przez Instytut Meteorologii i Gospodarki Wodnej – Państwowy Instytut Badawczy.

 

Wybierz Datę:    

       

TemperaturaWilgotnośćWiatrCiśnienieOpadyŚniegCzas trwania zjawisk
 Stacja t tx tn tng RH VA  wxwx mslp ppp RRR   cm mm wxwxwxwxwxwxwx
1987-08-14 16.1 22.5 8.9 5.9 76.5- 4.0 3.7---- 0.0------------
1987-08-13 13.8 18.5 9.5 6.3 75.3- 3.7 3.3---- 0.0------------
1987-08-12 13.6 18.0 10.2 7.8 77.8- 5.3 3.0---- 0.0------------
1987-08-11 13.6 18.1 10.9 9.9 87.3- 4.7 3.7---- 3.0------------
1987-08-10 17.1 19.4 16.0 14.4 76.3- 7.3 3.0---- 0.4------------
1987-08-09 18.0 23.6 11.5 6.9 57.5- 1.7 4.3---- 0.0------------
1987-08-08 14.9 20.2 11.8 8.3 74.3- 4.3 1.7---- 0.0------------
1987-08-07 12.7 17.9 8.9 5.4 72.0- 6.0 3.3---- 0.0------------
1987-08-06 11.5 16.0 10.2 8.0 85.3- 7.0 2.3---- 1.4------------
1987-08-05 13.4 18.0 10.7 8.3 80.3- 7.0 2.0---- 2.0------------
1987-08-04 16.5 20.0 9.7 10.7 80.0- 6.0 1.7---- 0.0------------
1987-08-03 15.3 19.6 12.2 10.2 78.8- 3.7 2.3---- 0.0------------
1987-08-02 15.6 20.0 13.6 11.5 80.0- 5.0 3.0---- 2.8------------
1987-08-01 16.7 22.6 11.1 8.9 70.8- 4.3 1.3---- 2.4------------
1987-07-31 17.6 23.0 13.7 13.5 74.5- 7.7 5.0---- 24.5------------
1987-07-30 18.5 24.3 13.6 10.9 65.3- 4.7 2.7---- 0.0------------
1987-07-29 14.5 19.1 11.2 8.9 69.0- 6.0 1.7---- 0.5------------
1987-07-28 14.0 16.8 12.6 10.9 81.8- 8.0 5.0---- 8.3------------
1987-07-27 13.5 18.6 10.1 8.3 72.8- 4.7 3.7---- 1.5------------
1987-07-26 14.5 21.7 11.7 12.4 96.5- 8.0 4.3---- 19.2------------
1987-07-25 20.5 26.2 16.1 14.0 80.8- 4.7 1.3---- 0.0------------
1987-07-24 22.0 28.5 17.8 14.9 77.8- 6.3 2.3---- 0.5------------
1987-07-23 21.8 28.9 15.8 13.4 79.0- 2.7 2.0---- 4.1------------
1987-07-22 20.5 24.8 16.2 13.3 84.3- 6.3 2.3---- 0.0------------
1987-07-21 21.1 25.4 14.0 12.3 80.0- 4.0 1.0---- 0.0------------
1987-07-20 22.1 26.0 18.0 15.5 77.3- 3.3 3.7---- 0.0------------
1987-07-19 24.5 31.4 18.8 16.8 80.8- 3.0 1.0---- 0.6------------
1987-07-18 24.5 31.2 18.2 14.9 75.5- 3.0 3.7---- 0.0------------
1987-07-17 23.3 28.2 17.3 13.9 71.8- 5.0 5.0---- 0.0------------
1987-07-16 19.5 27.8 10.7 9.2 76.3- 2.0 2.3---- 0.0------------
1987-07-15 16.2 22.8 8.7 6.3 73.8- 1.3 1.7---- 0.0------------
1987-07-14 17.2 21.8 11.6 8.8 72.5- 2.7 2.3---- 0.0------------
1987-07-13 19.5 26.4 16.0 13.5 77.3- 6.3 2.7---- 0.0------------
1987-07-12 22.3 28.4 14.8 12.4 63.5- 3.3 5.3---- 7.6------------
1987-07-11 17.4 24.4 9.7 7.4 66.8- 2.0 1.7---- 0.0------------
1987-07-10 16.3 19.5 12.7 10.5 72.5- 3.7 4.3---- 0.0------------
1987-07-09 20.7 24.1 16.1 15.9 75.5- 6.3 3.0---- 2.5------------
1987-07-08 22.0 28.4 15.2 10.4 54.5- 0.0 3.7---- 0.0------------
1987-07-07 17.9 25.1 8.6 5.9 70.3- 0.3 2.0---- 0.0------------
1987-07-06 17.5 23.3 9.4 7.2 69.0- 0.7 1.3---- 0.0------------
1987-07-05 15.8 20.6 13.6 11.8 85.3- 6.3 1.3---- 0.0------------
1987-07-04 19.6 23.6 16.4 14.9 72.0- 5.0 1.3---- 0.3------------
1987-07-03 19.5 23.6 16.6 15.4 78.3- 5.3 2.3---- 0.0------------
1987-07-02 21.6 26.7 20.2 18.4 82.8- 8.0 2.3---- 0.0------------
1987-07-01 25.3 31.3 19.2 16.4 74.8- 2.7 2.0---- 0.0------------
1987-06-30 22.9 29.1 14.9 13.1 78.3- 0.7 1.0---- 0.0------------
1987-06-29 21.0 25.5 15.1 12.4 75.8- 3.0 1.3---- 0.0------------
1987-06-28 19.6 25.3 13.6 11.1 76.0- 4.7 1.3---- 0.0------------
1987-06-27 19.5 23.2 17.2 14.5 76.5- 5.7 1.3---- 0.4------------
1987-06-26 17.0 23.2 9.3 6.9 68.0- 2.0 5.0---- 0.0------------
1987-06-25 16.5 19.6 13.9 11.4 73.8- 4.3 4.0---- 0.0------------
1987-06-24 17.1 21.0 13.2 10.4 73.8- 3.3 3.0---- 0.0------------
1987-06-23 16.6 20.4 14.3 12.8 83.0- 6.7 3.0---- 0.0------------
1987-06-22 16.8 22.5 12.1 10.4 81.8- 6.7 2.3---- 0.0------------
1987-06-21 17.3 24.5 9.6 6.5 70.3- 3.0 1.3---- 0.0------------
1987-06-20 15.8 22.3 9.2 5.4 61.8- 0.3 3.7---- 0.0------------
1987-06-19 13.3 18.6 9.6 6.5 65.5- 4.0 1.0---- 0.0------------
1987-06-18 11.0 17.7 6.2 4.0 81.0- 4.7 3.7---- 3.8------------
1987-06-17 11.3 14.5 10.3 7.3 79.5- 5.0 1.0---- 1.5------------
1987-06-16 16.9 23.0 12.0 12.2 76.8- 5.7 5.0---- 3.4------------
1184.4 ms

 

Źródłem pochodzenia danych jest Instytut Meteorologii i Gospodarki Wodnej – Państwowy Instytut Badawczy. Dane Instytutu Meteorologii i Gospodarki Wodnej – Państwowego Instytutu Badawczego zostały przetworzone.

Dane źródłowe można odnaleźć na stronie https://dane.imgw.pl